Terminal Aerodrome Forecast
Issued by NWS

Home | Current Version | Previous Version | Text Only | Print | Product List | Glossary On
Versions: 1 2 3 4 5 6 7 8 9 10 11 12 13 14 15 16 17 18 19 20 21
000
FTUS44 KTSA 021959 AAA
TAFXNA
TAF AMD
KXNA 021959Z 0220/0318 32008KT P6SM FEW024 OVC035
     FM030700 31003KT P6SM SCT035
     FM031600 35008KT P6SM SCT050=

USA.gov is the U.S. government's official web portal to all federal, state and local government web resources and services.